Time;durP1;ratioP1;P1;durP2;ratioP2;P2;SDS_P1;SDS_P2;PMS_P1;PMS_P2;Temp;Humidity;BMP_temperature;BMP_pressure;BME280_temperature;BME280_humidity;BME280_pressure;Samples;Min_cycle;Max_cycle;Signal;HPM_P1;HPM_P2
2024/01/16 00:00:24;;;;;;;5.68;4.63;;;;;;;0.99;53.13;100493.38;5009048;28;20096;-70
2024/01/16 00:02:52;;;;;;;10.68;5.43;;;;;;;0.98;53.50;100497.03;5001386;28;20049;-70
2024/01/16 00:05:22;;;;;;;7.53;5.13;;;;;;;0.99;53.38;100491.56;5010348;28;20048;-71
2024/01/16 00:07:50;;;;;;;6.32;4.50;;;;;;;0.98;53.29;100500.59;5018755;28;20042;-71
2024/01/16 00:10:18;;;;;;;6.68;4.55;;;;;;;0.99;53.28;100499.63;5010148;28;20053;-72
2024/01/16 00:12:46;;;;;;;6.35;4.25;;;;;;;1.01;53.52;100513.88;5025605;28;20458;-71
2024/01/16 00:15:15;;;;;;;7.47;4.75;;;;;;;1.01;53.35;100507.66;5070229;23;20134;-72
2024/01/16 00:17:43;;;;;;;6.47;4.40;;;;;;;1.01;53.34;100508.50;4990279;28;20121;-72
2024/01/16 00:20:12;;;;;;;6.40;4.32;;;;;;;1.03;53.34;100516.50;4990252;28;20046;-72
2024/01/16 00:22:41;;;;;;;6.28;4.50;;;;;;;1.04;53.35;100513.72;4990402;28;20518;-71
2024/01/16 00:25:09;;;;;;;7.65;4.97;;;;;;;1.04;53.40;100507.47;4990043;28;20057;-72
2024/01/16 00:27:37;;;;;;;7.30;4.45;;;;;;;1.04;53.26;100507.47;4989752;28;20053;-72
2024/01/16 00:30:07;;;;;;;6.75;4.90;;;;;;;1.05;53.26;100511.91;4990302;28;20109;-72
2024/01/16 00:32:35;;;;;;;6.63;4.57;;;;;;;1.05;53.08;100503.81;4993698;28;20449;-71
2024/01/16 00:35:03;;;;;;;6.78;4.72;;;;;;;1.06;53.39;100508.25;4992668;28;20047;-72
2024/01/16 00:37:31;;;;;;;7.07;4.60;;;;;;;1.05;53.18;100512.78;4993260;28;20046;-71
2024/01/16 00:40:01;;;;;;;7.68;4.68;;;;;;;1.07;53.24;100518.09;5003686;28;20053;-73
2024/01/16 00:42:29;;;;;;;7.13;4.60;;;;;;;1.06;53.17;100521.72;5007481;28;20413;-72
2024/01/16 00:44:56;;;;;;;6.53;4.22;;;;;;;1.05;53.26;100520.88;4993911;28;20129;-72
2024/01/16 00:47:24;;;;;;;6.03;4.38;;;;;;;1.05;53.21;100526.25;4984301;28;20156;-72
2024/01/16 00:49:52;;;;;;;7.07;4.85;;;;;;;1.05;53.18;100525.38;4992520;28;20067;-73
2024/01/16 00:52:20;;;;;;;6.47;4.55;;;;;;;1.05;52.98;100534.34;4992989;28;20125;-73
2024/01/16 00:54:48;;;;;;;7.45;4.55;;;;;;;1.06;53.14;100529.81;4994247;28;20513;-73
2024/01/16 00:57:19;;;;;;;8.63;5.25;;;;;;;1.07;53.35;100531.56;4996326;28;20542;-73
2024/01/16 00:59:47;;;;;;;6.72;4.65;;;;;;;1.06;53.37;100529.81;4989360;28;20050;-71
2024/01/16 01:02:15;;;;;;;7.32;5.38;;;;;;;1.07;53.33;100531.56;5004132;28;20052;-71
2024/01/16 01:04:43;;;;;;;9.30;5.32;;;;;;;1.06;53.22;100525.31;4998345;28;20485;-73
2024/01/16 01:07:14;;;;;;;7.88;5.90;;;;;;;1.07;53.25;100537.81;4973377;28;20322;-71
2024/01/16 01:09:42;;;;;;;7.93;5.85;;;;;;;1.05;53.23;100534.34;5011276;28;20401;-71
2024/01/16 01:12:10;;;;;;;9.20;6.63;;;;;;;1.06;53.19;100546.00;5011459;28;20129;-71
2024/01/16 01:14:39;;;;;;;10.00;5.72;;;;;;;1.07;53.19;100545.91;4993261;28;20041;-72
2024/01/16 01:17:07;;;;;;;10.82;6.20;;;;;;;1.07;53.16;100545.03;4993407;28;20059;-71
2024/01/16 01:19:35;;;;;;;11.63;7.13;;;;;;;1.06;53.04;100546.00;4994314;28;20047;-72
2024/01/16 01:22:04;;;;;;;10.68;6.35;;;;;;;1.05;53.21;100545.13;5009809;28;20046;-72
2024/01/16 01:24:32;;;;;;;12.05;7.40;;;;;;;1.06;52.94;100548.69;4992258;28;20081;-71
2024/01/16 01:27:00;;;;;;;9.55;6.60;;;;;;;1.05;53.11;100546.94;4984708;28;20096;-72
2024/01/16 01:29:28;;;;;;;10.52;6.95;;;;;;;1.05;53.16;100549.63;4991980;28;20050;-72
2024/01/16 01:31:57;;;;;;;11.43;6.60;;;;;;;1.05;53.22;100555.91;4997315;28;20409;-73
2024/01/16 01:34:25;;;;;;;9.35;6.95;;;;;;;1.04;53.16;100551.44;5008350;28;20068;-73
2024/01/16 01:36:53;;;;;;;9.85;6.60;;;;;;;1.03;53.09;100559.63;4996789;28;20461;-72
2024/01/16 01:39:21;;;;;;;8.23;6.40;;;;;;;1.03;53.29;100557.78;4992747;28;20042;-72
2024/01/16 01:41:49;;;;;;;12.32;7.03;;;;;;;1.02;53.19;100552.47;4992412;28;20125;-72
2024/01/16 01:44:17;;;;;;;10.45;7.10;;;;;;;1.01;53.02;100561.53;4999999;28;20073;-72
2024/01/16 01:46:46;;;;;;;10.60;6.88;;;;;;;1.01;53.13;100561.53;4983574;28;20053;-72
2024/01/16 01:49:16;;;;;;;9.82;7.07;;;;;;;1.02;53.16;100566.81;4999157;28;20050;-72
2024/01/16 01:51:45;;;;;;;9.25;6.30;;;;;;;1.00;53.07;100555.28;4985539;28;20046;-73
2024/01/16 01:54:15;;;;;;;12.30;7.40;;;;;;;1.02;53.17;100566.81;5011823;28;20466;-72
2024/01/16 01:56:45;;;;;;;12.27;7.15;;;;;;;1.01;53.18;100565.06;4986613;28;20050;-72
2024/01/16 01:59:15;;;;;;;10.00;6.43;;;;;;;1.02;53.15;100569.53;4994364;28;20061;-72
2024/01/16 02:01:43;;;;;;;9.60;6.40;;;;;;;1.01;53.16;100559.69;4974842;28;20659;-72
2024/01/16 02:04:13;;;;;;;9.82;5.93;;;;;;;1.01;53.21;100569.63;4978885;28;20098;-72
2024/01/16 02:06:44;;;;;;;10.77;6.10;;;;;;;1.03;52.89;100565.88;4987745;28;20509;-72
2024/01/16 02:09:13;;;;;;;7.65;5.72;;;;;;;1.02;53.16;100563.25;4988443;28;20047;-72
2024/01/16 02:11:44;;;;;;;9.82;6.22;;;;;;;1.01;53.07;100556.16;5002067;28;20046;-72
2024/01/16 02:14:12;;;;;;;10.20;6.00;;;;;;;1.01;53.22;100564.25;4994321;28;20046;-72
2024/01/16 02:16:42;;;;;;;8.65;5.70;;;;;;;1.02;53.17;100569.53;5008306;28;20513;-72
2024/01/16 02:19:10;;;;;;;8.95;6.00;;;;;;;1.01;53.10;100566.94;5010808;28;20045;-72
2024/01/16 02:21:40;;;;;;;9.88;5.82;;;;;;;1.02;53.18;100574.03;5011243;28;20045;-73
2024/01/16 02:24:11;;;;;;;8.88;5.63;;;;;;;1.03;53.12;100575.78;5007810;28;20539;-72
2024/01/16 02:26:39;;;;;;;8.80;5.95;;;;;;;1.02;53.16;100576.72;4993404;28;20500;-72
2024/01/16 02:29:07;;;;;;;8.70;5.90;;;;;;;1.02;53.10;100571.34;5001652;28;20493;-72
2024/01/16 02:31:36;;;;;;;9.55;6.00;;;;;;;1.01;53.13;100567.78;4991409;28;20138;-72
2024/01/16 02:34:04;;;;;;;10.00;6.13;;;;;;;1.02;53.21;100568.66;4991691;28;20441;-72
2024/01/16 02:36:33;;;;;;;9.70;6.85;;;;;;;1.02;53.33;100576.72;4991737;28;20042;-72
2024/01/16 02:39:01;;;;;;;9.45;6.60;;;;;;;1.02;53.14;100574.03;4994346;28;20523;-72
2024/01/16 02:41:30;;;;;;;9.82;6.32;;;;;;;1.02;53.09;100569.53;5011081;28;20120;-71
2024/01/16 02:43:58;;;;;;;9.68;6.50;;;;;;;1.00;53.25;100565.19;5010520;28;20053;-72
2024/01/16 02:46:26;;;;;;;9.65;6.47;;;;;;;1.01;53.26;100569.63;5011104;28;20587;-72
2024/01/16 02:48:54;;;;;;;8.98;6.22;;;;;;;1.00;53.18;100566.06;5002886;28;20047;-72
2024/01/16 02:51:22;;;;;;;8.25;6.22;;;;;;;1.01;53.23;100572.31;4981952;28;20046;-72
2024/01/16 02:53:50;;;;;;;9.00;7.05;;;;;;;1.01;53.08;100567.78;4990567;28;20125;-72
2024/01/16 02:56:18;;;;;;;10.48;6.95;;;;;;;1.01;53.18;100564.25;4991132;28;20049;-72
2024/01/16 02:58:47;;;;;;;9.43;6.20;;;;;;;1.03;53.11;100565.00;4969846;28;20051;-72
2024/01/16 03:01:15;;;;;;;11.48;6.50;;;;;;;1.01;53.20;100564.25;4971660;28;20047;-71
2024/01/16 03:03:44;;;;;;;10.35;6.38;;;;;;;1.02;53.17;100560.56;4974295;28;20070;-71
2024/01/16 03:06:22;;;;;;;9.23;6.13;;;;;;;1.05;53.14;100563.09;5002441;28;20049;-72
2024/01/16 03:08:51;;;;;;;8.90;6.30;;;;;;;1.02;53.11;100560.56;5003041;28;20048;-72
2024/01/16 03:11:19;;;;;;;10.63;6.50;;;;;;;1.02;53.03;100561.44;4998626;28;20259;-72
2024/01/16 03:13:49;;;;;;;8.65;5.88;;;;;;;1.03;53.04;100559.63;4993080;28;20150;-72
2024/01/16 03:16:17;;;;;;;9.50;5.82;;;;;;;1.01;53.01;100556.16;5009218;28;20042;-72
2024/01/16 03:18:45;;;;;;;10.05;6.85;;;;;;;1.01;53.11;100561.53;5010181;28;20485;-72
2024/01/16 03:21:15;;;;;;;9.48;6.13;;;;;;;1.02;53.04;100564.13;5004998;28;20070;-72
2024/01/16 03:23:42;;;;;;;9.20;5.78;;;;;;;1.01;53.06;100562.38;4973197;28;20548;-72
2024/01/16 03:26:13;;;;;;;9.02;6.00;;;;;;;1.02;53.29;100557.88;5002501;28;20137;-72
2024/01/16 03:28:42;;;;;;;8.27;6.00;;;;;;;1.00;53.06;100552.59;5004272;28;20390;-72
2024/01/16 03:31:13;;;;;;;9.23;5.75;;;;;;;1.02;53.30;100552.47;4972888;28;20042;-72
2024/01/16 03:33:42;;;;;;;8.48;5.57;;;;;;;0.99;52.86;100558.94;4989982;28;20521;-72
2024/01/16 03:36:12;;;;;;;8.63;5.80;;;;;;;1.01;53.15;100561.53;4976560;28;20054;-72
2024/01/16 03:38:41;;;;;;;7.75;5.70;;;;;;;0.99;52.97;100558.94;5009443;28;20426;-71
2024/01/16 03:41:09;;;;;;;8.45;5.47;;;;;;;0.99;53.12;100552.66;4996926;28;20042;-72
2024/01/16 03:43:37;;;;;;;8.18;5.50;;;;;;;0.99;53.15;100561.63;4998362;28;20056;-72
2024/01/16 03:46:05;;;;;;;7.85;4.80;;;;;;;0.98;53.28;100561.69;4990456;28;20525;-72
2024/01/16 03:48:34;;;;;;;7.00;4.90;;;;;;;0.99;53.08;100558.06;4990492;28;20054;-72
2024/01/16 03:51:02;;;;;;;8.98;5.03;;;;;;;0.98;53.12;100554.47;4990030;28;20100;-72
2024/01/16 03:53:30;;;;;;;7.30;5.40;;;;;;;0.97;53.10;100560.81;4989028;28;20046;-72
2024/01/16 03:55:58;;;;;;;7.22;5.10;;;;;;;0.97;53.13;100562.63;4989932;28;20044;-72
2024/01/16 03:58:26;;;;;;;7.50;4.90;;;;;;;0.97;53.12;100565.34;4990374;28;20070;-72
2024/01/16 04:00:54;;;;;;;7.82;5.22;;;;;;;0.97;53.20;100560.81;4990097;28;20077;-72
2024/01/16 04:03:22;;;;;;;7.60;4.93;;;;;;;0.97;53.05;100562.63;5009843;28;20530;-72
2024/01/16 04:05:52;;;;;;;8.60;5.20;;;;;;;0.96;53.05;100556.38;5008936;28;20049;-72
2024/01/16 04:08:20;;;;;;;7.90;4.32;;;;;;;0.95;53.17;100556.44;5007844;28;20049;-72
2024/01/16 04:10:48;;;;;;;7.25;4.18;;;;;;;0.95;53.26;100565.41;4989697;28;20563;-71
2024/01/16 04:13:16;;;;;;;6.03;4.40;;;;;;;0.95;53.18;100561.84;4989415;28;20743;-71
2024/01/16 04:15:44;;;;;;;6.65;4.10;;;;;;;0.96;53.13;100569.84;4989519;28;20443;-73
2024/01/16 04:18:11;;;;;;;6.07;4.05;;;;;;;0.94;53.07;100563.66;4990189;28;20567;-72
2024/01/16 04:20:42;;;;;;;6.53;4.15;;;;;;;0.95;53.16;100573.50;4997456;28;20472;-72
2024/01/16 04:23:12;;;;;;;7.75;4.22;;;;;;;0.96;53.23;100568.97;5010398;28;20520;-72
2024/01/16 04:25:40;;;;;;;6.70;4.20;;;;;;;0.96;53.35;100568.97;5009484;28;20042;-72
2024/01/16 04:28:08;;;;;;;7.15;4.15;;;;;;;0.95;53.19;100562.72;5000260;28;20348;-72
2024/01/16 04:30:36;;;;;;;5.88;4.07;;;;;;;0.95;53.17;100570.78;4989535;28;20129;-73
2024/01/16 04:33:05;;;;;;;6.50;3.60;;;;;;;0.95;53.04;100560.03;4972433;28;20571;-71
2024/01/16 04:35:33;;;;;;;6.75;4.05;;;;;;;0.97;53.00;100568.91;4990231;28;20081;-71
2024/01/16 04:38:03;;;;;;;5.13;3.85;;;;;;;0.96;53.00;100558.19;4995534;28;20046;-72
2024/01/16 04:40:32;;;;;;;6.53;4.03;;;;;;;0.97;53.13;100562.63;4988603;28;20406;-72
2024/01/16 04:43:00;;;;;;;5.88;4.10;;;;;;;0.96;53.13;100558.19;4996963;28;20050;-72
2024/01/16 04:45:28;;;;;;;5.78;3.90;;;;;;;0.96;53.00;100556.38;4989497;28;20117;-72
2024/01/16 04:47:55;;;;;;;5.45;3.80;;;;;;;0.96;53.08;100563.59;4997864;28;20052;-71
2024/01/16 04:50:31;;;;;;;5.85;4.15;;;;;;;0.96;53.00;100567.16;4994476;28;20437;-72
2024/01/16 04:53:00;;;;;;;7.00;4.22;;;;;;;0.97;53.01;100570.72;5005297;28;20225;-72
2024/01/16 04:55:28;;;;;;;6.45;4.18;;;;;;;0.97;53.05;100568.03;5002623;28;20045;-72
2024/01/16 04:57:59;;;;;;;6.47;4.40;;;;;;;0.98;52.81;100567.97;4998201;28;20042;-72
2024/01/16 05:00:28;;;;;;;6.32;4.35;;;;;;;0.95;53.01;100562.72;4984898;28;20092;-72
2024/01/16 05:02:56;;;;;;;7.72;4.57;;;;;;;0.96;52.98;100556.38;4981199;28;20042;-72
2024/01/16 05:05:24;;;;;;;7.20;4.90;;;;;;;0.94;52.96;100560.97;5000763;28;20069;-72
2024/01/16 05:07:56;;;;;;;8.80;5.13;;;;;;;0.94;53.04;100552.00;5004664;28;20061;-72
2024/01/16 05:10:24;;;;;;;9.07;5.78;;;;;;;0.94;53.07;100555.56;4995605;28;20289;-71
2024/01/16 05:12:52;;;;;;;8.20;5.07;;;;;;;0.94;52.75;100552.88;4997317;28;20046;-73
2024/01/16 05:15:21;;;;;;;8.82;5.40;;;;;;;0.95;52.95;100553.75;4996815;28;20454;-73
2024/01/16 05:17:49;;;;;;;10.38;5.65;;;;;;;0.94;53.01;100554.72;4996875;28;20046;-72
2024/01/16 05:20:17;;;;;;;9.57;5.28;;;;;;;0.93;53.04;100548.44;5003558;28;20046;-72
2024/01/16 05:22:45;;;;;;;7.35;4.78;;;;;;;0.93;52.97;100555.69;5007445;28;20181;-72
2024/01/16 05:25:13;;;;;;;7.85;4.75;;;;;;;0.91;52.84;100550.38;4991230;28;20462;-72
2024/01/16 05:27:41;;;;;;;7.70;4.93;;;;;;;0.92;52.95;100553.94;5000530;28;20045;-72
2024/01/16 05:30:10;;;;;;;9.00;4.90;;;;;;;0.92;52.92;100554.81;4998589;28;20133;-72
2024/01/16 05:32:41;;;;;;;7.38;4.95;;;;;;;0.91;52.92;100558.47;5000554;28;20129;-71
2024/01/16 05:35:10;;;;;;;10.07;5.13;;;;;;;0.92;52.96;100559.31;5003277;28;20049;-72
2024/01/16 05:37:38;;;;;;;8.75;5.13;;;;;;;0.91;52.98;100553.06;4993979;28;20045;-72
2024/01/16 05:40:08;;;;;;;8.15;4.88;;;;;;;0.91;52.98;100552.19;4988666;28;20116;-72
2024/01/16 05:42:36;;;;;;;8.95;5.25;;;;;;;0.90;52.84;100550.44;5010979;28;20042;-72
2024/01/16 05:45:04;;;;;;;10.20;4.75;;;;;;;0.91;52.92;100544.13;4992069;28;20046;-72
2024/01/16 05:47:32;;;;;;;9.82;5.00;;;;;;;0.89;52.80;100541.50;4993991;28;20068;-72
2024/01/16 05:50:01;;;;;;;9.93;4.97;;;;;;;0.90;52.91;100536.97;4996585;28;20069;-72
2024/01/16 05:52:30;;;;;;;8.18;4.40;;;;;;;0.88;52.89;100536.19;4994945;28;20093;-73
2024/01/16 05:54:59;;;;;;;9.82;4.78;;;;;;;0.89;53.00;100533.41;4983705;28;20047;-73
2024/01/16 05:57:27;;;;;;;9.13;4.85;;;;;;;0.89;52.82;100537.94;4985440;28;20089;-72
2024/01/16 05:59:55;;;;;;;8.40;4.70;;;;;;;0.90;52.54;100523.50;4993088;28;20408;-72
2024/01/16 06:02:23;;;;;;;10.40;5.28;;;;;;;0.90;52.69;100523.50;4990916;28;20042;-71
2024/01/16 06:04:52;;;;;;;10.90;5.03;;;;;;;0.90;52.70;100519.00;4991673;28;20528;-72
2024/01/16 06:07:21;;;;;;;9.60;4.55;;;;;;;0.90;52.56;100531.59;5010985;28;20137;-72
2024/01/16 06:09:49;;;;;;;9.20;4.80;;;;;;;0.88;52.44;100526.28;4998619;28;20580;-72
2024/01/16 06:12:17;;;;;;;7.63;4.30;;;;;;;0.88;52.55;100528.09;4997713;28;20597;-72
2024/01/16 06:14:45;;;;;;;7.97;4.00;;;;;;;0.88;52.46;100528.09;4984888;28;20532;-72
2024/01/16 06:17:13;;;;;;;6.95;4.03;;;;;;;0.88;52.61;100528.09;5004552;28;20042;-71
2024/01/16 06:19:41;;;;;;;9.27;4.15;;;;;;;0.87;52.63;100523.63;4994010;28;20070;-70
2024/01/16 06:22:09;;;;;;;7.88;3.55;;;;;;;0.86;52.36;100533.53;4998827;28;20112;-70
2024/01/16 06:24:39;;;;;;;8.98;4.13;;;;;;;0.86;52.44;100530.81;4991365;28;20042;-70
2024/01/16 06:27:07;;;;;;;7.63;3.83;;;;;;;0.85;52.40;100528.25;4991683;28;20069;-72
2024/01/16 06:29:35;;;;;;;6.55;3.50;;;;;;;0.84;52.23;100527.38;5000908;28;20100;-72
2024/01/16 06:32:03;;;;;;;8.07;3.65;;;;;;;0.83;52.35;100530.13;4991116;28;20038;-71
2024/01/16 06:34:31;;;;;;;5.47;3.00;;;;;;;0.81;52.18;100532.91;4990045;28;20039;-71
2024/01/16 06:36:59;;;;;;;7.15;3.10;;;;;;;0.80;52.22;100535.69;4979625;28;20034;-71
2024/01/16 06:39:27;;;;;;;6.78;3.25;;;;;;;0.81;52.08;100532.03;4985481;28;20592;-72
2024/01/16 06:41:56;;;;;;;8.30;3.60;;;;;;;0.80;51.73;100532.97;4974843;28;20133;-71
2024/01/16 06:44:24;;;;;;;6.05;3.60;;;;;;;0.78;52.11;100533.06;4999057;28;20046;-71
2024/01/16 06:46:52;;;;;;;6.57;3.00;;;;;;;0.77;51.71;100534.00;4991713;28;20387;-72
2024/01/16 06:49:20;;;;;;;6.70;2.83;;;;;;;0.76;51.97;100540.38;4996292;28;20054;-71
2024/01/16 06:51:48;;;;;;;7.10;3.40;;;;;;;0.76;51.91;100542.19;4991733;28;20049;-71
2024/01/16 06:54:16;;;;;;;6.55;2.90;;;;;;;0.74;51.92;100548.53;4994311;28;20413;-72
2024/01/16 06:56:44;;;;;;;7.35;3.10;;;;;;;0.73;51.77;100544.09;4987542;28;20527;-72
2024/01/16 06:59:13;;;;;;;7.35;2.70;;;;;;;0.73;51.67;100543.22;4971950;28;20508;-72
2024/01/16 07:01:41;;;;;;;6.63;3.10;;;;;;;0.70;51.74;100544.22;4989592;28;20120;-71
2024/01/16 07:04:09;;;;;;;6.25;2.80;;;;;;;0.70;51.79;100548.75;4989997;28;20056;-71
2024/01/16 07:06:37;;;;;;;8.18;2.90;;;;;;;0.68;51.73;100548.81;4986951;28;20048;-71
2024/01/16 07:09:06;;;;;;;6.20;2.53;;;;;;;0.69;51.64;100555.06;4995089;28;20045;-71
2024/01/16 07:11:33;;;;;;;6.05;2.90;;;;;;;0.67;51.55;100557.88;4993473;28;20158;-71
2024/01/16 07:14:02;;;;;;;8.18;2.90;;;;;;;0.67;51.71;100563.25;4993106;28;20049;-71
2024/01/16 07:16:31;;;;;;;4.85;2.40;;;;;;;0.68;51.72;100556.91;4990556;28;20506;-71
2024/01/16 07:18:59;;;;;;;7.55;3.35;;;;;;;0.66;51.49;100569.59;4982703;28;20518;-72
2024/01/16 07:21:27;;;;;;;6.60;3.15;;;;;;;0.66;51.51;100574.09;4995730;28;20054;-71
2024/01/16 07:23:55;;;;;;;6.15;2.70;;;;;;;0.66;51.45;100582.19;4987897;28;20528;-71
2024/01/16 07:26:24;;;;;;;5.40;2.70;;;;;;;0.65;51.29;100573.25;4993722;28;20042;-71
2024/01/16 07:28:52;;;;;;;5.50;2.60;;;;;;;0.65;51.34;100580.44;4997523;28;20379;-71
2024/01/16 07:31:20;;;;;;;6.10;2.60;;;;;;;0.65;51.33;100575.94;4992868;28;20042;-71
2024/01/16 07:33:49;;;;;;;5.40;2.53;;;;;;;0.65;51.23;100575.06;4996197;28;21338;-71
2024/01/16 07:36:17;;;;;;;6.70;2.58;;;;;;;0.64;51.44;100574.19;4992243;28;20513;-72
2024/01/16 07:38:45;;;;;;;7.43;2.55;;;;;;;0.65;51.11;100577.75;4991424;28;20054;-72
2024/01/16 07:41:13;;;;;;;6.78;2.70;;;;;;;0.64;51.22;100584.09;4984918;28;20266;-71
2024/01/16 07:43:41;;;;;;;5.63;2.38;;;;;;;0.64;51.37;100584.94;4999859;28;20057;-71
2024/01/16 07:46:09;;;;;;;6.13;2.70;;;;;;;0.64;51.03;100582.25;4992169;28;20060;-71
2024/01/16 07:48:37;;;;;;;7.38;2.60;;;;;;;0.65;51.31;100581.31;4984946;28;20053;-71
2024/01/16 07:51:07;;;;;;;6.63;2.58;;;;;;;0.65;50.80;100578.63;4991693;28;20047;-69
2024/01/16 07:53:35;;;;;;;6.28;2.70;;;;;;;0.65;51.12;100591.22;4991395;28;20047;-71
2024/01/16 07:56:03;;;;;;;7.20;2.20;;;;;;;0.65;51.27;100592.09;4987958;28;20042;-71
2024/01/16 07:58:31;;;;;;;6.55;2.40;;;;;;;0.66;51.26;100587.56;4997781;28;20088;-72
2024/01/16 08:00:59;;;;;;;5.80;2.50;;;;;;;0.67;51.09;100594.72;4998973;28;20053;-72
2024/01/16 08:03:27;;;;;;;6.22;2.67;;;;;;;0.67;51.01;100597.41;4998127;28;20413;-72
2024/01/16 08:05:55;;;;;;;6.20;2.42;;;;;;;0.68;50.99;100594.59;4994324;28;20034;-72
2024/01/16 08:08:25;;;;;;;5.88;2.45;;;;;;;0.69;50.86;100596.34;4994945;28;20113;-72
2024/01/16 08:10:53;;;;;;;6.13;2.72;;;;;;;0.69;50.99;100592.78;4993830;28;20096;-72
2024/01/16 08:13:21;;;;;;;5.97;2.67;;;;;;;0.71;51.13;100597.16;5000418;28;20460;-71
2024/01/16 08:15:48;;;;;;;7.95;2.67;;;;;;;0.71;50.97;100602.53;4989045;28;20061;-72
2024/01/16 08:18:17;;;;;;;7.40;2.50;;;;;;;0.71;50.91;100599.84;4994511;28;20050;-73
2024/01/16 08:20:45;;;;;;;6.22;2.65;;;;;;;0.73;50.89;100600.66;4980704;28;20078;-72
2024/01/16 08:23:13;;;;;;;6.75;2.55;;;;;;;0.74;51.03;100606.91;4987716;28;20048;-72
2024/01/16 08:25:43;;;;;;;6.10;2.60;;;;;;;0.75;50.50;100603.28;4983176;28;20597;-72
2024/01/16 08:28:11;;;;;;;6.47;2.65;;;;;;;0.74;50.78;100599.69;4991036;28;20450;-72
2024/01/16 08:30:39;;;;;;;8.68;2.92;;;;;;;0.76;50.69;100601.44;4988693;28;20045;-72
2024/01/16 08:33:07;;;;;;;8.05;2.78;;;;;;;0.77;50.42;100611.25;4992763;28;20104;-72
2024/01/16 08:35:35;;;;;;;6.32;2.72;;;;;;;0.77;50.72;100605.84;5000411;28;20042;-72
2024/01/16 08:38:04;;;;;;;6.43;2.75;;;;;;;0.78;50.50;100618.38;4998805;28;20046;-72
2024/01/16 08:40:32;;;;;;;7.15;2.72;;;;;;;0.78;50.39;100613.00;4997253;28;20046;-72
2024/01/16 08:43:03;;;;;;;6.65;2.80;;;;;;;0.80;50.62;100616.50;4982591;28;20041;-72
2024/01/16 08:45:31;;;;;;;6.70;3.10;;;;;;;0.78;50.34;100616.56;4981012;28;20049;-72
2024/01/16 08:47:59;;;;;;;7.88;3.58;;;;;;;0.80;50.49;100614.66;4998681;28;20045;-72
2024/01/16 08:50:28;;;;;;;9.00;3.35;;;;;;;0.81;50.49;100618.25;4983843;28;20061;-72
2024/01/16 08:52:56;;;;;;;5.65;3.15;;;;;;;0.81;50.30;100620.94;5003936;28;20062;-73
2024/01/16 08:55:24;;;;;;;7.03;3.00;;;;;;;0.82;50.23;100617.28;4999646;28;20270;-72
2024/01/16 08:57:51;;;;;;;5.88;3.10;;;;;;;0.83;50.26;100613.66;4997328;28;20454;-72
2024/01/16 09:00:21;;;;;;;7.47;3.55;;;;;;;0.84;50.10;100621.66;4989912;28;20061;-74
2024/01/16 09:02:49;;;;;;;7.85;3.00;;;;;;;0.84;50.26;100610.00;4991477;28;20482;-74
2024/01/16 09:05:17;;;;;;;6.45;2.83;;;;;;;0.86;50.11;100608.09;4990566;28;20048;-74
2024/01/16 09:07:45;;;;;;;6.10;3.25;;;;;;;0.85;50.09;100611.75;4996318;28;20042;-74
2024/01/16 09:10:13;;;;;;;5.50;2.83;;;;;;;0.86;50.04;100614.34;4984967;28;20053;-74
2024/01/16 09:12:42;;;;;;;5.50;2.95;;;;;;;0.86;49.80;100614.34;4984351;28;20105;-73
2024/01/16 09:15:11;;;;;;;7.85;2.90;;;;;;;0.88;49.92;100612.50;4987856;28;20138;-73
2024/01/16 09:17:41;;;;;;;8.07;2.90;;;;;;;0.89;49.45;100613.38;4992582;28;20520;-74
2024/01/16 09:20:10;;;;;;;6.65;2.97;;;;;;;0.88;49.82;100615.19;4986510;28;20069;-75
2024/01/16 09:22:38;;;;;;;8.30;3.20;;;;;;;0.87;49.74;100616.09;4991635;28;20577;-74
2024/01/16 09:25:06;;;;;;;5.72;3.00;;;;;;;0.88;49.74;100614.31;4995374;28;20061;-73
2024/01/16 09:27:34;;;;;;;7.80;3.15;;;;;;;0.89;49.73;100618.75;4993966;28;20473;-73
2024/01/16 09:30:02;;;;;;;7.53;3.03;;;;;;;0.89;49.63;100610.66;4992361;28;20065;-74
2024/01/16 09:32:30;;;;;;;5.65;2.75;;;;;;;0.88;49.53;100617.00;4994819;28;20409;-73
2024/01/16 09:35:02;;;;;;;5.90;2.35;;;;;;;0.90;49.44;100626.75;4993673;28;20429;-74
2024/01/16 09:37:30;;;;;;;7.13;3.30;;;;;;;0.87;49.56;100618.78;4992382;28;20473;-73
2024/01/16 09:39:58;;;;;;;6.00;2.72;;;;;;;0.89;49.52;100616.94;4994371;28;20046;-72
2024/01/16 09:42:27;;;;;;;7.00;3.05;;;;;;;0.91;49.48;100615.03;4993473;28;20072;-72
2024/01/16 09:44:57;;;;;;;6.57;2.95;;;;;;;0.92;49.17;100607.81;4993911;28;20076;-72
2024/01/16 09:47:26;;;;;;;5.63;2.85;;;;;;;0.92;49.38;100608.69;4998744;28;20490;-73
2024/01/16 09:49:57;;;;;;;6.38;2.70;;;;;;;0.93;49.16;100606.88;4992409;28;20073;-73
2024/01/16 09:52:27;;;;;;;8.02;3.00;;;;;;;0.93;48.98;100606.88;4997277;28;20049;-72
2024/01/16 09:54:55;;;;;;;7.40;3.60;;;;;;;0.92;49.34;100606.00;4992433;28;20046;-72
2024/01/16 09:57:26;;;;;;;6.70;3.08;;;;;;;0.93;48.55;100605.03;4992186;28;20046;-72
2024/01/16 09:59:56;;;;;;;7.28;3.40;;;;;;;0.93;49.10;100606.88;4990005;28;20426;-73
2024/01/16 10:02:24;;;;;;;7.45;2.90;;;;;;;0.91;49.08;100600.69;4998637;28;20052;-72
2024/01/16 10:04:53;;;;;;;5.88;2.80;;;;;;;0.91;49.24;100606.94;4980103;28;20100;-72
2024/01/16 10:07:27;;;;;;;5.57;2.83;;;;;;;0.92;49.02;100603.31;4991095;28;20045;-73
2024/01/16 10:09:59;;;;;;;6.38;3.00;;;;;;;0.93;48.47;100606.88;4999905;28;20046;-73
2024/01/16 10:12:27;;;;;;;7.45;3.03;;;;;;;0.92;49.05;100597.06;4990381;28;20070;-72
2024/01/16 10:14:56;;;;;;;7.97;3.28;;;;;;;0.93;48.85;100596.09;4990259;28;20517;-72
2024/01/16 10:17:36;;;;;;;7.10;3.00;;;;;;;0.94;47.55;100590.59;4974551;28;20137;-72
2024/01/16 10:20:08;;;;;;;6.50;2.95;;;;;;;0.93;48.79;100585.31;4980273;28;20473;-72
2024/01/16 10:22:36;;;;;;;6.65;2.53;;;;;;;0.93;48.88;100593.41;4995140;28;20046;-72
2024/01/16 10:25:10;;;;;;;5.57;2.72;;;;;;;0.96;47.94;100585.16;4999789;28;20133;-72
2024/01/16 10:27:40;;;;;;;7.68;3.08;;;;;;;0.96;48.88;100591.41;4998038;28;20039;-73
2024/01/16 10:30:10;;;;;;;6.53;2.90;;;;;;;0.96;48.89;100582.44;4989169;28;20061;-73
2024/01/16 10:32:40;;;;;;;7.32;2.95;;;;;;;0.98;48.59;100575.16;4991948;28;20038;-72
2024/01/16 10:35:10;;;;;;;7.03;2.78;;;;;;;0.99;48.78;100575.09;4990956;28;20053;-73
2024/01/16 10:37:44;;;;;;;5.45;2.78;;;;;;;0.99;48.15;100564.31;4986976;28;20051;-73
2024/01/16 10:40:16;;;;;;;11.57;3.10;;;;;;;1.00;48.05;100562.50;4985142;28;20107;-73
2024/01/16 10:42:46;;;;;;;5.17;2.83;;;;;;;0.98;49.11;100559.88;4999234;28;20133;-73
2024/01/16 10:45:19;;;;;;;6.50;2.63;;;;;;;1.02;48.22;100558.75;4987304;28;20815;-73
2024/01/16 10:47:47;;;;;;;8.50;3.10;;;;;;;1.03;48.68;100563.19;4994994;28;20074;-72
2024/01/16 10:50:16;;;;;;;6.80;2.70;;;;;;;1.05;48.83;100558.59;4991671;28;20108;-72
2024/01/16 10:52:48;;;;;;;5.13;3.03;;;;;;;1.10;48.06;100561.91;4995685;28;20509;-72
2024/01/16 10:55:22;;;;;;;5.43;2.67;;;;;;;1.10;47.91;100569.13;4983814;28;20054;-72
2024/01/16 10:57:50;;;;;;;8.60;2.85;;;;;;;1.12;48.64;100559.13;5003134;28;20042;-72
2024/01/16 11:00:21;;;;;;;4.97;2.83;;;;;;;1.14;48.45;100565.31;4990686;28;20046;-72
2024/01/16 11:02:52;;;;;;;6.50;3.40;;;;;;;1.16;48.20;100557.16;4991464;28;20133;-72
2024/01/16 11:05:22;;;;;;;6.57;2.80;;;;;;;1.17;48.49;100553.50;5006688;28;20473;-72
2024/01/16 11:07:55;;;;;;;;;;;;;;;0.98;48.10;100556.31;4989765;28;20127;-72
2024/01/16 11:10:25;;;;;;;8.00;3.60;;;;;;;1.16;48.51;100552.63;4994865;28;19987;-72
2024/01/16 11:12:54;;;;;;;6.35;2.88;;;;;;;1.21;48.51;100560.47;4991834;28;20046;-72
2024/01/16 11:15:22;;;;;;;6.82;3.05;;;;;;;1.23;48.61;100553.19;4996893;28;20133;-72
2024/01/16 11:17:51;;;;;;;5.85;3.25;;;;;;;1.24;48.35;100555.78;4999349;28;20046;-72
2024/01/16 11:20:19;;;;;;;5.90;2.78;;;;;;;1.26;48.42;100536.84;4997598;28;20042;-72
2024/01/16 11:23:07;;;;;;;6.28;3.20;;;;;;;1.27;48.64;100542.13;4990557;28;20073;-72
2024/01/16 11:25:37;;;;;;;9.15;3.35;;;;;;;1.32;48.29;100553.56;4997057;28;20050;-72
2024/01/16 11:28:13;;;;;;;8.23;3.00;;;;;;;1.36;47.51;100560.50;5000883;28;20442;-72
2024/01/16 11:30:42;;;;;;;7.30;3.30;;;;;;;1.37;48.81;100561.38;4990996;28;20050;-72
2024/01/16 11:33:44;;;;;;;6.95;3.08;;;;;;;1.43;46.99;100566.44;4992625;28;20050;-72
2024/01/16 11:36:46;;;;;;;5.28;2.90;;;;;;;1.47;47.27;100576.09;4992306;28;20536;-72
2024/01/16 11:39:18;;;;;;;5.55;3.17;;;;;;;1.52;48.00;100574.03;4987706;28;20096;-72